Updated24/08/2019 12:15 
 

GeoURL
free counters
Scottish Weather Network UK Weather Network Cumulus Top Weather Sites

Peebles Weather - Nearby METAR Reports

Raw Data, Raw Data Expanded

Ignore low humidity and Dew Point values. Something wrong with the sensor.
Daytime temperatures are in direct sunlight so may be higher than official air temperature values.
As with any other website, we log your IP address and browser type in the server logs for diagnostic reasons. Cookies are used to record visit time and gauges preferences. No personal information is stored or processed.

All times are in local time (GMT, or BST in summer) unless specified.

2019/08/24 10:50 EGPH 241050Z 22009KT CAVOK 21/15 Q1018
24.0°C 0.0 mm 0.0 mm 0.0 mm 5.2 mph 7.6 mph 1013.6 hPa 53% X-Ray Solar Flare Level
Planetary K-Index
Planetary K-Index History
Station Warn Rain Snow Flood Wind Ltng Heat Cold Glob Moon Temp Rain 1h Rain Sat Rain 24h Wind 10m Gust Pressure Hum Proton Levels

0.39 m Waning Crescent Comfortable F2-S F: A: Kp:0 SSN:0

METAR Reports

 

EGPH - Edinburgh Airpor, United Kingdom
Distance from station: NNW 22mi, 36km
Updated: 24/08/2019 11:50
Clear
Clear
 Wind from SW
Wind: SW 10 mph , 17 km/h
Temperature: 21°C
Dew Point: 15°C
Humidity: 69%
Barometer: 1018 hPa
Summary: Clear
Visibility: greater than 7 miles , 10 km
2019/08/24 10:50 EGPH 241050Z 22009KT CAVOK 21/15 Q1018
EGOM - Spadeadam, United Kingdom
Distance from station: SSE 49mi, 79km
Updated: 24/08/2019 11:50
Mostly cloudy
Mostly cloudy
 Wind from S
Wind: S 7 mph , 11 km/h
Temperature: 22°C
Dew Point: 12°C
Humidity: 53%
Barometer: 1018 hPa
Clouds: Mostly cloudy
Visibility: 6 miles , 10 km
Cloud details: Mostly cloudy 5182 m
2019/08/24 10:50 EGOM 241050Z AUTO 17006KT 9999 BKN170/// 22/12 Q1018
 
EGNC - Carlisle, United Kingdom
Distance from station: SSE 51mi, 82km
Updated: 24/08/2019 11:50
Clear
Clear
 Wind from S
Wind: S 10 mph , 17 km/h
Temperature: 22°C
Dew Point: 14°C
Humidity: 61%
Barometer: 1018 hPa
Summary: Clear
Visibility: greater than 7 miles , 10 km
2019/08/24 10:50 EGNC 241050Z 19009KT 140V230 CAVOK 22/14 Q1018
EGPF - Glasgow Airport, United Kingdom
Distance from station: WNW 51mi, 82km
Updated: 24/08/2019 11:50
Clear
Clear
 Wind from S
Wind: S 6 mph , 9 km/h
Temperature: 20°C
Dew Point: 14°C
Humidity: 69%
Barometer: 1018 hPa
Clouds: Clear
Visibility: 6 miles , 10 km
2019/08/24 10:50 EGPF 241050Z AUTO 19005KT 160V220 9999 NCD 20/14 Q1018
 
EGQL - Leuchars Raf, United Kingdom
Distance from station: NNE 53mi, 85km
Updated: 24/08/2019 11:50
Clear
Clear
 Wind from WSW
Wind: WSW 2 mph , 4 km/h
Temperature: 21°C
Dew Point: 14°C
Humidity: 64%
Barometer: 1018 hPa
Summary: Clear
Visibility: greater than 7 miles , 10 km
2019/08/24 10:50 EGQL 241050Z 24002KT CAVOK 21/14 Q1018 BLU
EGPK - Prestwick(Civ/Na, United Kingdom
Distance from station: W 55mi, 89km
Updated: 24/08/2019 11:50
Few Clouds
Few Clouds
 Wind from SSW
Wind: SSW 6 mph , 9 km/h
Temperature: 21°C
Dew Point: 15°C
Humidity: 69%
Barometer: 1017 hPa
Clouds: Few Clouds
Visibility: 6 miles , 10 km
Cloud details: Few Clouds 914 m
2019/08/24 10:50 EGPK 241050Z 20005KT 140V250 9999 FEW030 21/15 Q1017
 
EGPN - Dundee/Riverside, United Kingdom
Distance from station: N 56mi, 90km
Updated: 24/08/2019 11:50
Few Clouds
Few Clouds
 Wind from W
Wind: W 2 mph , 4 km/h
Temperature: 19°C
Dew Point: 15°C
Humidity: 78%
Barometer: 1018 hPa
Clouds: Few Clouds
Visibility: 6 miles , 10 km
Cloud details: Few Clouds 732 m
2019/08/24 10:50 EGPN 241050Z 26002KT 9999 FEW024 19/15 Q1018
EGNT - Newcastle, United Kingdom
Distance from station: SE 72mi, 116km
Updated: 24/08/2019 11:50
Few Clouds
Few Clouds
 Wind from SSE
Wind: SSE 6 mph , 9 km/h
Temperature: 24°C
Dew Point: 16°C
Humidity: 61%
Barometer: 1019 hPa
Clouds: Few Clouds
Visibility: 6 miles , 10 km
Cloud details: Few Clouds 914 m
2019/08/24 10:50 EGNT 241050Z 15005KT 090V210 9999 FEW030 24/16 Q1019
 
EGNV - Tees-Side, United Kingdom
Distance from station: SE 104mi, 168km
Updated: 24/08/2019 11:50
Few Clouds
Few Clouds
 Wind from S
Wind: S 13 mph , 20 km/h
Temperature: 23°C
Dew Point: 14°C
Humidity: 57%
Barometer: 1019 hPa
Clouds: Few Clouds
Visibility: 6 miles , 10 km
Cloud details: Few Clouds 1219 m
2019/08/24 10:50 EGNV 241050Z 18011KT 150V210 9999 FEW040 23/14 Q1019
EGPD - Aberdeen/Dyce, United Kingdom
Distance from station: NNE 114mi, 183km
Updated: 24/08/2019 11:50
Clear
Clear
 Wind from S
Wind: S 14 mph , 22 km/h
Temperature: 18°C
Dew Point: 14°C
Humidity: 78%
Barometer: 1018 hPa
Clouds: Clear
Visibility: 6 miles , 10 km
2019/08/24 10:50 EGPD 241050Z AUTO 18012KT 9999 NCD 18/14 Q1018 NOSIG
 
EGNS - Isle Of Man/Rona, United Kingdom
Distance from station: SSW 122mi, 197km
Updated: 24/08/2019 11:50
Clear
Clear
 Wind from ENE
Wind: ENE 9 mph , 15 km/h
Temperature: 19°C
Dew Point: 16°C
Humidity: 83%
Barometer: 1017 hPa
Summary: Clear
Visibility: greater than 7 miles , 10 km
2019/08/24 10:50 EGNS 241050Z 07008KT CAVOK 19/16 Q1017 NOSIG
EGAC - Belfast Harbour, United Kingdom
Distance from station: WSW 128mi, 206km
Updated: 24/08/2019 11:50
Clear
Clear
 Wind from S
Wind: S 12 mph , 19 km/h
Temperature: 20°C
Dew Point: 14°C
Humidity: 69%
Barometer: 1016 hPa
Clouds: Clear
Visibility: 6 miles , 10 km
2019/08/24 10:50 EGAC 241050Z AUTO 18010KT 9999 NCD 20/14 Q1016
 
EGPE - Inverness/Dalcro, United Kingdom
Distance from station: NNW 134mi, 215km
Updated: 24/08/2019 11:50
Few Clouds
Few Clouds
 Wind from varies
Wind: varies 1 mph , 2 km/h
Temperature: 18°C
Dew Point: 13°C
Humidity: 73%
Barometer: 1016 hPa
Clouds: Few Clouds
Visibility: 6 miles , 10 km
Cloud details: Few Clouds 1036 m
2019/08/24 10:50 EGPE 241050Z VRB01KT 9999 FEW034 18/13 Q1016
XHTML 1.1 | CSS